Time;durP1;ratioP1;P1;durP2;ratioP2;P2;SDS_P1;SDS_P2;PMS_P1;PMS_P2;Temp;Humidity;BMP_temperature;BMP_pressure;BME280_temperature;BME280_humidity;BME280_pressure;Samples;Min_cycle;Max_cycle;Signal;HPM_P1;HPM_P2
2021/07/03 00:01:10;;;;;;;;;;;22.60;66.00;;;;;;3123618;28;19928;-73
2021/07/03 00:02:42;;;;;;;;;;;22.60;66.00;;;;;;3122875;28;19921;-73
2021/07/03 00:04:12;;;;;;;;;;;22.60;66.10;;;;;;3123544;28;19928;-73
2021/07/03 00:05:44;;;;;;;;;;;22.60;66.10;;;;;;3123237;28;20370;-73
2021/07/03 00:07:15;;;;;;;;;;;22.60;66.20;;;;;;3123914;28;19921;-73
2021/07/03 00:08:47;;;;;;;;;;;22.60;66.10;;;;;;3123252;28;19917;-73
2021/07/03 00:10:18;;;;;;;;;;;22.60;66.10;;;;;;3123407;28;20420;-73
2021/07/03 00:11:50;;;;;;;;;;;22.60;66.00;;;;;;3123633;28;20294;-73
2021/07/03 00:13:22;;;;;;;;;;;22.60;66.00;;;;;;3123166;28;20230;-73
2021/07/03 00:14:53;;;;;;;;;;;22.60;66.00;;;;;;3123466;28;19921;-73
2021/07/03 00:16:25;;;;;;;;;;;22.60;66.00;;;;;;3122944;28;19921;-73
2021/07/03 00:17:56;;;;;;;;;;;22.60;66.30;;;;;;3123724;28;19925;-73
2021/07/03 00:19:27;;;;;;;;;;;22.60;66.10;;;;;;3123083;28;19917;-73
2021/07/03 00:20:59;;;;;;;;;;;22.60;66.20;;;;;;3123391;28;20370;-73
2021/07/03 00:22:29;;;;;;;;;;;22.60;66.30;;;;;;3123466;28;19921;-73
2021/07/03 00:24:01;;;;;;;;;;;22.60;66.10;;;;;;3123202;28;19917;-73
2021/07/03 00:25:31;;;;;;;;;;;22.70;66.10;;;;;;3122920;28;19928;-73
2021/07/03 00:27:03;;;;;;;;;;;22.60;66.10;;;;;;3123358;28;20293;-73
2021/07/03 00:28:36;;;;;;;;;;;22.70;66.00;;;;;;3123398;28;19921;-73
2021/07/03 00:30:07;;;;;;;;;;;22.60;65.90;;;;;;3122987;28;19921;-73
2021/07/03 00:31:38;;;;;;;;;;;22.60;66.00;;;;;;3123191;28;19928;-72
2021/07/03 00:33:10;;;;;;;;;;;22.60;66.10;;;;;;3123403;28;20382;-73
2021/07/03 00:34:40;;;;;;;;;;;22.60;66.00;;;;;;3123181;28;19921;-73
2021/07/03 00:36:12;;;;;;;;;;;22.60;66.00;;;;;;3122638;28;19923;-73
2021/07/03 00:37:42;;;;;;;;;;;22.60;65.90;;;;;;3123168;28;19928;-73
2021/07/03 00:39:14;;;;;;;;;;;22.60;66.20;;;;;;3123325;28;20292;-73
2021/07/03 00:40:45;;;;;;;;;;;22.60;66.00;;;;;;3122747;28;20294;-73
2021/07/03 00:42:16;;;;;;;;;;;22.60;66.10;;;;;;3123027;28;19932;-73
2021/07/03 00:43:49;;;;;;;;;;;22.60;66.40;;;;;;3123189;28;20285;-73
2021/07/03 00:45:20;;;;;;;;;;;22.60;66.30;;;;;;3122687;28;19960;-72
2021/07/03 00:46:52;;;;;;;;;;;22.60;66.70;;;;;;3122787;28;19925;-73
2021/07/03 00:48:23;;;;;;;;;;;22.60;66.40;;;;;;3123038;28;19921;-73
2021/07/03 00:49:55;;;;;;;;;;;22.60;66.40;;;;;;3123115;28;19930;-72
2021/07/03 00:51:26;;;;;;;;;;;22.60;66.60;;;;;;3122415;28;19947;-73
2021/07/03 00:52:57;;;;;;;;;;;22.60;66.50;;;;;;3123150;28;19928;-72
2021/07/03 00:54:28;;;;;;;;;;;22.60;66.50;;;;;;3122964;28;19921;-73
2021/07/03 00:56:00;;;;;;;;;;;22.60;66.30;;;;;;3122439;28;19920;-73
2021/07/03 00:57:31;;;;;;;;;;;22.70;66.40;;;;;;3122643;28;19921;-72
2021/07/03 00:59:04;;;;;;;;;;;22.60;66.30;;;;;;3122935;28;20055;-73
2021/07/03 01:00:35;;;;;;;;;;;22.60;66.20;;;;;;3122793;28;19921;-73
2021/07/03 01:02:07;;;;;;;;;;;22.60;66.00;;;;;;3122253;28;19921;-74
2021/07/03 01:03:39;;;;;;;;;;;22.60;66.00;;;;;;3123068;28;19921;-73
2021/07/03 01:05:11;;;;;;;;;;;22.60;66.00;;;;;;3122905;28;19928;-72
2021/07/03 01:06:42;;;;;;;;;;;22.60;66.10;;;;;;3122493;28;19921;-72
2021/07/03 01:08:13;;;;;;;;;;;22.60;66.00;;;;;;3122321;28;20271;-73
2021/07/03 01:09:44;;;;;;;;;;;22.60;66.00;;;;;;3122967;28;19923;-72
2021/07/03 01:11:23;;;;;;;;;;;22.60;65.90;;;;;;3122723;28;20383;-73
2021/07/03 01:12:53;;;;;;;;;;;22.60;65.90;;;;;;3122312;28;19921;-73
2021/07/03 01:14:26;;;;;;;;;;;22.60;65.90;;;;;;3123110;28;19917;-72
2021/07/03 01:15:57;;;;;;;;;;;22.60;65.80;;;;;;3122716;28;19928;-73
2021/07/03 01:17:28;;;;;;;;;;;22.60;65.80;;;;;;3122736;28;19917;-73
2021/07/03 01:19:00;;;;;;;;;;;22.60;65.80;;;;;;3122409;28;19927;-73
2021/07/03 01:20:31;;;;;;;;;;;22.60;65.90;;;;;;3122842;28;19921;-72
2021/07/03 01:22:05;;;;;;;;;;;22.70;65.90;;;;;;3122901;28;19921;-73
2021/07/03 01:23:37;;;;;;;;;;;22.70;65.80;;;;;;3122193;28;19925;-72
2021/07/03 01:25:09;;;;;;;;;;;22.70;65.80;;;;;;3122689;28;20297;-73
2021/07/03 01:26:42;;;;;;;;;;;22.70;65.70;;;;;;3122612;28;19921;-72
2021/07/03 01:28:12;;;;;;;;;;;22.70;65.60;;;;;;3123005;28;19920;-73
2021/07/03 01:29:44;;;;;;;;;;;22.70;65.50;;;;;;3122161;28;19917;-73
2021/07/03 01:31:15;;;;;;;;;;;22.70;65.60;;;;;;3122830;28;20362;-73
2021/07/03 01:32:46;;;;;;;;;;;22.70;65.50;;;;;;3123066;28;19924;-73
2021/07/03 01:34:19;;;;;;;;;;;22.70;65.40;;;;;;3122151;28;19955;-73
2021/07/03 01:35:50;;;;;;;;;;;22.70;65.30;;;;;;3122321;28;19932;-73
2021/07/03 01:37:23;;;;;;;;;;;22.70;65.30;;;;;;3122594;28;20282;-73
2021/07/03 01:38:54;;;;;;;;;;;22.70;65.30;;;;;;3122851;28;19928;-73
2021/07/03 01:40:25;;;;;;;;;;;22.70;65.20;;;;;;3122037;28;19917;-74
2021/07/03 01:41:56;;;;;;;;;;;22.70;65.20;;;;;;3122660;28;19928;-73
2021/07/03 01:43:28;;;;;;;;;;;22.70;65.10;;;;;;3122866;28;20378;-73
2021/07/03 01:45:00;;;;;;;;;;;22.70;65.10;;;;;;3122051;28;20313;-74
2021/07/03 01:46:30;;;;;;;;;;;22.70;65.10;;;;;;3122160;28;20333;-73
2021/07/03 01:50:10;;;;;;;;;;;22.70;65.10;;;;;;3119707;28;20354;-73
2021/07/03 01:51:42;;;;;;;;;;;22.70;65.00;;;;;;3122253;28;19921;-73
2021/07/03 01:53:14;;;;;;;;;;;22.70;64.90;;;;;;3122526;28;19921;-73
2021/07/03 01:54:46;;;;;;;;;;;22.70;64.90;;;;;;3122426;28;19921;-73
2021/07/03 01:56:17;;;;;;;;;;;22.70;64.90;;;;;;3121770;28;20267;-73
2021/07/03 01:57:49;;;;;;;;;;;22.70;64.80;;;;;;3117693;28;19925;-73
2021/07/03 01:59:20;;;;;;;;;;;22.70;64.80;;;;;;3110544;28;19937;-73
2021/07/03 02:00:53;;;;;;;;;;;22.70;64.70;;;;;;3109770;28;20331;-73
2021/07/03 02:02:24;;;;;;;;;;;22.70;64.70;;;;;;3110376;28;20398;-73
2021/07/03 02:03:55;;;;;;;;;;;22.60;64.60;;;;;;3110304;28;19921;-73
2021/07/03 02:05:26;;;;;;;;;;;22.70;64.50;;;;;;3109754;28;20382;-73
2021/07/03 02:06:58;;;;;;;;;;;22.70;64.50;;;;;;3109903;28;19968;-73
2021/07/03 02:08:30;;;;;;;;;;;22.70;64.50;;;;;;3110349;28;20374;-73
2021/07/03 02:10:01;;;;;;;;;;;22.70;64.60;;;;;;3110548;28;19928;-73
2021/07/03 02:11:33;;;;;;;;;;;22.70;64.50;;;;;;3111886;28;19921;-73
2021/07/03 02:13:04;;;;;;;;;;;22.60;64.40;;;;;;3112631;28;19964;-73
2021/07/03 02:14:35;;;;;;;;;;;22.60;64.40;;;;;;3112695;28;19921;-73
2021/07/03 02:16:07;;;;;;;;;;;22.60;64.30;;;;;;3112018;28;20013;-73
2021/07/03 02:17:37;;;;;;;;;;;22.60;64.30;;;;;;3112664;28;19964;-73
2021/07/03 02:19:09;;;;;;;;;;;22.70;64.30;;;;;;3112831;28;19925;-73
2021/07/03 02:20:41;;;;;;;;;;;22.60;64.20;;;;;;3112764;28;19929;-73
2021/07/03 02:22:11;;;;;;;;;;;22.60;64.20;;;;;;3112189;28;19921;-73
2021/07/03 02:23:46;;;;;;;;;;;22.60;64.00;;;;;;3112559;28;19917;-73
2021/07/03 02:25:17;;;;;;;;;;;22.60;64.10;;;;;;3112390;28;19980;-73
2021/07/03 02:26:48;;;;;;;;;;;22.60;64.00;;;;;;3112098;28;19917;-74
2021/07/03 02:28:20;;;;;;;;;;;22.60;64.10;;;;;;3112674;28;19921;-73
2021/07/03 02:29:51;;;;;;;;;;;22.60;64.00;;;;;;3112449;28;19929;-73
2021/07/03 02:31:23;;;;;;;;;;;22.60;64.00;;;;;;3112381;28;19928;-73
2021/07/03 02:32:54;;;;;;;;;;;22.60;64.00;;;;;;3112412;28;20179;-73
2021/07/03 02:34:26;;;;;;;;;;;22.60;64.00;;;;;;3112518;28;19921;-74
2021/07/03 02:35:57;;;;;;;;;;;22.60;64.00;;;;;;3112103;28;20412;-73
2021/07/03 02:37:29;;;;;;;;;;;22.60;64.00;;;;;;3111955;28;19921;-73
2021/07/03 02:39:02;;;;;;;;;;;22.60;63.90;;;;;;3112565;28;19965;-73
2021/07/03 02:40:32;;;;;;;;;;;22.60;63.90;;;;;;3119674;28;20007;-73
2021/07/03 02:42:04;;;;;;;;;;;22.60;63.90;;;;;;3124269;28;19917;-73
2021/07/03 02:43:35;;;;;;;;;;;22.60;64.00;;;;;;3124986;28;19921;-73
2021/07/03 02:45:06;;;;;;;;;;;22.60;64.00;;;;;;3124780;28;19956;-74
2021/07/03 02:46:38;;;;;;;;;;;22.60;63.90;;;;;;3124214;28;19928;-74
2021/07/03 02:48:08;;;;;;;;;;;22.60;63.90;;;;;;3124147;28;20395;-74
2021/07/03 02:49:40;;;;;;;;;;;22.60;64.20;;;;;;3124854;28;20176;-74
2021/07/03 02:51:11;;;;;;;;;;;22.60;64.00;;;;;;3124391;28;20333;-74
2021/07/03 02:52:43;;;;;;;;;;;22.60;64.10;;;;;;3124141;28;19925;-73
2021/07/03 02:55:49;;;;;;;;;;;22.60;64.20;;;;;;3122816;28;19925;-72
2021/07/03 02:57:21;;;;;;;;;;;22.60;64.10;;;;;;3123433;28;19921;-72
2021/07/03 02:58:52;;;;;;;;;;;22.60;64.20;;;;;;3111838;28;19957;-73
2021/07/03 03:00:23;;;;;;;;;;;22.60;64.20;;;;;;3112587;28;20416;-72
2021/07/03 03:01:55;;;;;;;;;;;22.60;64.10;;;;;;3112116;28;20028;-72
2021/07/03 03:03:26;;;;;;;;;;;22.50;63.80;;;;;;3111820;28;19929;-72
2021/07/03 03:04:57;;;;;;;;;;;22.60;64.10;;;;;;3112349;28;19921;-72
2021/07/03 03:06:28;;;;;;;;;;;22.50;64.10;;;;;;3112084;28;20378;-72
2021/07/03 03:08:00;;;;;;;;;;;22.50;64.10;;;;;;3111931;28;19925;-72
2021/07/03 03:09:31;;;;;;;;;;;22.50;64.20;;;;;;3111895;28;19975;-72
2021/07/03 03:11:04;;;;;;;;;;;22.50;64.20;;;;;;3112043;28;19928;-72
2021/07/03 03:12:35;;;;;;;;;;;22.50;64.20;;;;;;3112366;28;19922;-72
2021/07/03 03:14:06;;;;;;;;;;;22.50;64.10;;;;;;3111608;28;19917;-72
2021/07/03 03:15:38;;;;;;;;;;;22.50;64.00;;;;;;3111786;28;19932;-72
2021/07/03 03:17:08;;;;;;;;;;;22.50;64.10;;;;;;3112250;28;20404;-72
2021/07/03 03:18:40;;;;;;;;;;;22.50;64.00;;;;;;3111990;28;19925;-72
2021/07/03 03:20:11;;;;;;;;;;;22.50;63.90;;;;;;3111919;28;19922;-72
2021/07/03 03:21:43;;;;;;;;;;;22.50;63.90;;;;;;3111554;28;20294;-72
2021/07/03 03:23:14;;;;;;;;;;;22.50;63.70;;;;;;3111509;28;19921;-72
2021/07/03 03:24:46;;;;;;;;;;;22.50;63.80;;;;;;3111609;28;19921;-72
2021/07/03 03:26:19;;;;;;;;;;;22.50;63.90;;;;;;3111565;28;20267;-72
2021/07/03 03:27:49;;;;;;;;;;;22.50;63.90;;;;;;3111815;28;19932;-72
2021/07/03 03:29:21;;;;;;;;;;;22.50;63.80;;;;;;3111525;28;20389;-72
2021/07/03 03:30:52;;;;;;;;;;;22.50;63.70;;;;;;3111728;28;19964;-73
2021/07/03 03:32:23;;;;;;;;;;;22.50;63.60;;;;;;3111752;28;19964;-72
2021/07/03 03:33:54;;;;;;;;;;;22.50;63.70;;;;;;3111744;28;19917;-72
2021/07/03 03:35:26;;;;;;;;;;;22.50;63.60;;;;;;3111318;28;19967;-72
2021/07/03 03:36:57;;;;;;;;;;;22.50;63.50;;;;;;3111547;28;20343;-72
2021/07/03 03:38:29;;;;;;;;;;;22.50;63.50;;;;;;3111516;28;19964;-73
2021/07/03 03:39:59;;;;;;;;;;;22.50;63.40;;;;;;3111414;28;19921;-72
2021/07/03 03:41:32;;;;;;;;;;;22.50;63.50;;;;;;3111627;28;19924;-72
2021/07/03 03:43:03;;;;;;;;;;;22.50;63.50;;;;;;3111652;28;19964;-72
2021/07/03 03:44:34;;;;;;;;;;;22.50;63.50;;;;;;3111362;28;20398;-72
2021/07/03 03:46:05;;;;;;;;;;;22.50;63.50;;;;;;3111325;28;19917;-72
2021/07/03 03:47:37;;;;;;;;;;;22.50;63.50;;;;;;3111551;28;19928;-73
2021/07/03 03:49:08;;;;;;;;;;;22.50;63.50;;;;;;3111529;28;20278;-72
2021/07/03 03:50:40;;;;;;;;;;;22.50;63.40;;;;;;3111038;28;19921;-72
2021/07/03 03:52:11;;;;;;;;;;;22.50;63.40;;;;;;3111684;28;20294;-72
2021/07/03 03:53:42;;;;;;;;;;;22.40;63.30;;;;;;3111508;28;19921;-72
2021/07/03 03:55:13;;;;;;;;;;;22.50;63.30;;;;;;3111018;28;20271;-73
2021/07/03 03:56:45;;;;;;;;;;;22.50;63.30;;;;;;3111214;28;19921;-72
2021/07/03 03:58:17;;;;;;;;;;;22.50;63.30;;;;;;3111638;28;19921;-72
2021/07/03 03:59:48;;;;;;;;;;;22.50;63.30;;;;;;3111375;28;20283;-72
2021/07/03 04:01:20;;;;;;;;;;;22.40;63.20;;;;;;3110931;28;19936;-72
2021/07/03 04:02:50;;;;;;;;;;;22.50;63.20;;;;;;3111580;28;19957;-72
2021/07/03 04:04:22;;;;;;;;;;;22.40;63.20;;;;;;3111321;28;19917;-72
2021/07/03 04:05:53;;;;;;;;;;;22.50;63.20;;;;;;3110589;28;19922;-72
2021/07/03 04:07:25;;;;;;;;;;;22.50;63.20;;;;;;3111409;28;19925;-72
2021/07/03 04:08:56;;;;;;;;;;;22.40;63.20;;;;;;3111572;28;19928;-72
2021/07/03 04:10:28;;;;;;;;;;;22.40;63.20;;;;;;3111241;28;19957;-72
2021/07/03 04:12:00;;;;;;;;;;;22.50;63.20;;;;;;3110811;28;20360;-72
2021/07/03 04:13:31;;;;;;;;;;;22.50;63.20;;;;;;3111342;28;19991;-72
2021/07/03 04:15:02;;;;;;;;;;;22.40;63.30;;;;;;3111505;28;19968;-72
2021/07/03 04:16:34;;;;;;;;;;;22.50;63.30;;;;;;3110352;28;19918;-72
2021/07/03 04:18:05;;;;;;;;;;;22.50;63.20;;;;;;3111171;28;19976;-72
2021/07/03 04:19:36;;;;;;;;;;;22.50;63.20;;;;;;3111324;28;19921;-72
2021/07/03 04:21:08;;;;;;;;;;;22.50;63.90;;;;;;3110779;28;19925;-72
2021/07/03 04:22:40;;;;;;;;;;;22.50;63.20;;;;;;3111083;28;19965;-72
2021/07/03 04:24:10;;;;;;;;;;;22.50;63.10;;;;;;3111089;28;19977;-72
2021/07/03 04:25:42;;;;;;;;;;;22.50;63.10;;;;;;3110859;28;20290;-72
2021/07/03 04:27:14;;;;;;;;;;;22.50;63.10;;;;;;3110778;28;19921;-72
2021/07/03 04:28:46;;;;;;;;;;;22.50;63.10;;;;;;3111190;28;19929;-72
2021/07/03 04:30:18;;;;;;;;;;;22.50;63.10;;;;;;3111114;28;20719;-72
2021/07/03 04:31:49;;;;;;;;;;;22.50;63.10;;;;;;3110797;28;19921;-72
2021/07/03 04:33:21;;;;;;;;;;;22.50;63.10;;;;;;3110612;28;19922;-72
2021/07/03 04:34:52;;;;;;;;;;;22.50;63.10;;;;;;3111097;28;20298;-72
2021/07/03 04:36:24;;;;;;;;;;;22.50;63.10;;;;;;3110510;28;19922;-72
2021/07/03 04:37:55;;;;;;;;;;;22.50;63.20;;;;;;3110749;28;19921;-72
2021/07/03 04:39:26;;;;;;;;;;;22.50;63.20;;;;;;3110981;28;19928;-72
2021/07/03 04:40:57;;;;;;;;;;;22.50;63.50;;;;;;3110762;28;19918;-72
2021/07/03 04:42:30;;;;;;;;;;;22.50;63.40;;;;;;3110743;28;19932;-73
2021/07/03 04:44:02;;;;;;;;;;;22.50;63.40;;;;;;3110820;28;19964;-72
2021/07/03 04:45:33;;;;;;;;;;;22.50;63.50;;;;;;3110527;28;20012;-73
2021/07/03 04:47:04;;;;;;;;;;;22.40;63.50;;;;;;3110882;28;20353;-72
2021/07/03 04:48:35;;;;;;;;;;;22.50;63.50;;;;;;3110815;28;19917;-72
2021/07/03 04:50:07;;;;;;;;;;;22.50;64.00;;;;;;3110883;28;19921;-72
2021/07/03 04:51:39;;;;;;;;;;;22.50;64.00;;;;;;3110877;28;19925;-72
2021/07/03 04:53:11;;;;;;;;;;;22.50;64.10;;;;;;3110474;28;19921;-72
2021/07/03 04:54:43;;;;;;;;;;;22.50;64.10;;;;;;3110734;28;20408;-72
2021/07/03 04:56:14;;;;;;;;;;;22.50;64.00;;;;;;3110254;28;19929;-72
2021/07/03 04:57:46;;;;;;;;;;;22.50;64.00;;;;;;3110323;28;20378;-72
2021/07/03 04:59:18;;;;;;;;;;;22.50;64.20;;;;;;3110945;28;20278;-72
2021/07/03 05:00:49;;;;;;;;;;;22.50;64.10;;;;;;3110794;28;19963;-72
2021/07/03 05:02:21;;;;;;;;;;;22.50;64.20;;;;;;3110698;28;19928;-72
2021/07/03 05:03:52;;;;;;;;;;;22.50;64.20;;;;;;3110977;28;20279;-75
2021/07/03 05:05:23;;;;;;;;;;;22.50;64.40;;;;;;3111679;28;19921;-74
2021/07/03 05:06:54;;;;;;;;;;;22.50;64.60;;;;;;3111232;28;20282;-74
2021/07/03 05:08:26;;;;;;;;;;;22.50;64.50;;;;;;3111128;28;19921;-74
2021/07/03 05:09:57;;;;;;;;;;;22.50;64.70;;;;;;3114031;28;19928;-74
2021/07/03 05:11:29;;;;;;;;;;;22.60;65.50;;;;;;3112522;28;19921;-75
2021/07/03 05:13:01;;;;;;;;;;;22.60;65.60;;;;;;3111836;28;19925;-75
2021/07/03 05:14:32;;;;;;;;;;;22.60;65.70;;;;;;3112600;28;20430;-74
2021/07/03 05:16:04;;;;;;;;;;;22.50;65.30;;;;;;3112892;28;19929;-73
2021/07/03 05:17:35;;;;;;;;;;;22.50;65.10;;;;;;3111736;28;19922;-75
2021/07/03 05:19:07;;;;;;;;;;;22.50;65.30;;;;;;3112567;28;19925;-73
2021/07/03 05:20:37;;;;;;;;;;;22.40;65.20;;;;;;3110665;28;20367;-73
2021/07/03 05:22:09;;;;;;;;;;;22.40;65.30;;;;;;3110731;28;20008;-71
2021/07/03 05:23:40;;;;;;;;;;;22.40;65.40;;;;;;3110969;28;20354;-72
2021/07/03 05:25:11;;;;;;;;;;;22.40;65.30;;;;;;3110219;28;19960;-73
2021/07/03 05:26:43;;;;;;;;;;;22.40;65.30;;;;;;3110203;28;19917;-73
2021/07/03 05:28:16;;;;;;;;;;;22.40;65.30;;;;;;3110771;28;20260;-73
2021/07/03 05:29:46;;;;;;;;;;;22.30;65.10;;;;;;3110200;28;19921;-73
2021/07/03 05:31:18;;;;;;;;;;;22.30;65.00;;;;;;3110503;28;20267;-73
2021/07/03 05:32:48;;;;;;;;;;;22.30;65.00;;;;;;3110494;28;20561;-73
2021/07/03 05:34:20;;;;;;;;;;;22.20;65.00;;;;;;3110485;28;19921;-73
2021/07/03 05:35:51;;;;;;;;;;;22.20;65.20;;;;;;3109992;28;19953;-77
2021/07/03 05:37:22;;;;;;;;;;;22.20;65.30;;;;;;3110538;28;19921;-75
2021/07/03 05:38:54;;;;;;;;;;;22.20;65.30;;;;;;3110497;28;19925;-75
2021/07/03 05:40:26;;;;;;;;;;;22.20;65.30;;;;;;3110176;28;19921;-76
2021/07/03 05:41:57;;;;;;;;;;;22.20;65.40;;;;;;3111223;28;19921;-76
2021/07/03 05:43:30;;;;;;;;;;;22.20;65.30;;;;;;3110309;28;20379;-76
2021/07/03 05:45:01;;;;;;;;;;;22.20;65.10;;;;;;3120599;28;19928;-76
2021/07/03 05:46:32;;;;;;;;;;;22.20;64.70;;;;;;3122334;28;20338;-76
2021/07/03 05:48:04;;;;;;;;;;;22.10;64.60;;;;;;3122704;28;19971;-77
2021/07/03 05:49:35;;;;;;;;;;;22.00;64.80;;;;;;3120022;28;20298;-77
2021/07/03 05:51:07;;;;;;;;;;;22.00;64.90;;;;;;3121395;28;19921;-77
2021/07/03 05:52:38;;;;;;;;;;;22.00;65.00;;;;;;3122049;28;19921;-77
2021/07/03 05:54:10;;;;;;;;;;;21.90;65.10;;;;;;3121926;28;19924;-77
2021/07/03 05:55:40;;;;;;;;;;;21.90;65.10;;;;;;3113542;28;19921;-76
2021/07/03 05:57:12;;;;;;;;;;;21.80;65.10;;;;;;3110033;28;19924;-76
2021/07/03 05:58:45;;;;;;;;;;;21.80;65.20;;;;;;3109969;28;19921;-76
2021/07/03 06:00:16;;;;;;;;;;;21.70;65.10;;;;;;3109417;28;19922;-76
2021/07/03 06:01:48;;;;;;;;;;;21.80;65.30;;;;;;3109630;28;19921;-77
2021/07/03 06:03:20;;;;;;;;;;;21.80;65.30;;;;;;3110034;28;20390;-76
2021/07/03 06:04:50;;;;;;;;;;;21.70;65.30;;;;;;3109914;28;20019;-77
2021/07/03 06:06:22;;;;;;;;;;;21.70;65.20;;;;;;3109375;28;19918;-76
2021/07/03 06:07:53;;;;;;;;;;;21.70;65.10;;;;;;3109690;28;19921;-77
2021/07/03 06:09:25;;;;;;;;;;;21.70;65.10;;;;;;3110271;28;19922;-75
2021/07/03 06:10:56;;;;;;;;;;;21.70;65.10;;;;;;3109763;28;19921;-75
2021/07/03 06:12:28;;;;;;;;;;;21.60;65.10;;;;;;3110889;28;19921;-75
2021/07/03 06:14:01;;;;;;;;;;;21.60;65.20;;;;;;3117537;28;19921;-76
2021/07/03 06:15:32;;;;;;;;;;;21.60;65.80;;;;;;3121249;28;19928;-75
2021/07/03 06:17:04;;;;;;;;;;;21.60;64.90;;;;;;3121817;28;19992;-76
2021/07/03 06:18:35;;;;;;;;;;;21.60;64.90;;;;;;3121929;28;19921;-76
2021/07/03 06:20:07;;;;;;;;;;;21.60;64.90;;;;;;3122397;28;20393;-76
2021/07/03 06:21:38;;;;;;;;;;;21.60;64.90;;;;;;3122047;28;19921;-75
2021/07/03 06:23:10;;;;;;;;;;;21.60;65.00;;;;;;3121966;28;20386;-76
2021/07/03 06:24:41;;;;;;;;;;;21.60;65.20;;;;;;3122206;28;19921;-75
2021/07/03 06:26:12;;;;;;;;;;;21.60;65.30;;;;;;3121912;28;20247;-75
2021/07/03 06:27:44;;;;;;;;;;;21.60;65.40;;;;;;3119018;28;19928;-76
2021/07/03 06:29:16;;;;;;;;;;;21.60;65.40;;;;;;3121963;28;19928;-76
2021/07/03 06:30:48;;;;;;;;;;;21.60;65.40;;;;;;3122140;28;19921;-76
2021/07/03 06:32:19;;;;;;;;;;;21.60;65.40;;;;;;3116272;28;19921;-75
2021/07/03 06:33:51;;;;;;;;;;;21.50;65.30;;;;;;3109470;28;19928;-75
2021/07/03 06:35:22;;;;;;;;;;;21.50;65.30;;;;;;3109800;28;20429;-76
2021/07/03 06:36:53;;;;;;;;;;;21.60;65.40;;;;;;3109640;28;19922;-75
2021/07/03 06:38:24;;;;;;;;;;;21.50;65.30;;;;;;3109619;28;20411;-76
2021/07/03 06:39:55;;;;;;;;;;;21.50;65.30;;;;;;3109563;28;19928;-75
2021/07/03 06:41:26;;;;;;;;;;;21.50;65.40;;;;;;3109168;28;19926;-76
2021/07/03 06:42:58;;;;;;;;;;;21.50;65.40;;;;;;3109357;28;19928;-76
2021/07/03 06:44:31;;;;;;;;;;;21.50;65.30;;;;;;3115056;28;19932;-75
2021/07/03 06:46:02;;;;;;;;;;;21.50;65.30;;;;;;3121366;28;20090;-75
2021/07/03 06:47:34;;;;;;;;;;;21.50;65.30;;;;;;3121857;28;20342;-76
2021/07/03 06:49:05;;;;;;;;;;;21.50;65.30;;;;;;3112994;28;19933;-76
2021/07/03 06:50:37;;;;;;;;;;;21.50;65.20;;;;;;3109385;28;19921;-76
2021/07/03 06:52:07;;;;;;;;;;;21.40;65.10;;;;;;3109777;28;20386;-75
2021/07/03 06:53:39;;;;;;;;;;;21.50;65.20;;;;;;3109845;28;19922;-76
2021/07/03 06:55:09;;;;;;;;;;;21.40;65.10;;;;;;3109248;28;19925;-75
2021/07/03 06:56:41;;;;;;;;;;;21.50;65.10;;;;;;3110314;28;19917;-75
2021/07/03 06:58:13;;;;;;;;;;;21.50;65.10;;;;;;3111888;28;20302;-75
2021/07/03 06:59:45;;;;;;;;;;;21.40;65.00;;;;;;3111600;28;19921;-76
2021/07/03 07:01:17;;;;;;;;;;;21.40;65.00;;;;;;3111627;28;19921;-75
2021/07/03 07:02:47;;;;;;;;;;;21.40;65.00;;;;;;3111786;28;19964;-76
2021/07/03 07:04:20;;;;;;;;;;;21.40;65.00;;;;;;3111559;28;19924;-75
2021/07/03 07:05:51;;;;;;;;;;;21.40;65.00;;;;;;3111075;28;19976;-76
2021/07/03 07:07:23;;;;;;;;;;;21.50;65.10;;;;;;3113683;28;20258;-75
2021/07/03 07:08:54;;;;;;;;;;;21.40;65.10;;;;;;3119299;28;20106;-75
2021/07/03 07:10:26;;;;;;;;;;;21.40;65.20;;;;;;3123799;28;19928;-75
2021/07/03 07:11:58;;;;;;;;;;;21.40;65.30;;;;;;3123859;28;19921;-75
2021/07/03 07:13:30;;;;;;;;;;;21.40;65.40;;;;;;3123865;28;19952;-76
2021/07/03 07:15:03;;;;;;;;;;;21.40;65.50;;;;;;3123594;28;19921;-75
2021/07/03 07:16:35;;;;;;;;;;;21.40;65.40;;;;;;3119423;28;19928;-76
2021/07/03 07:18:06;;;;;;;;;;;21.40;65.40;;;;;;3120678;28;19921;-75
2021/07/03 07:19:38;;;;;;;;;;;21.40;65.50;;;;;;3123723;28;19921;-76
2021/07/03 07:21:09;;;;;;;;;;;21.40;65.50;;;;;;3115100;28;19936;-75
2021/07/03 07:22:41;;;;;;;;;;;21.40;65.50;;;;;;3122120;28;19925;-76
2021/07/03 07:24:11;;;;;;;;;;;21.40;65.50;;;;;;3122915;28;19921;-74
2021/07/03 07:25:44;;;;;;;;;;;21.40;65.50;;;;;;3113082;28;19918;-75
2021/07/03 07:27:15;;;;;;;;;;;21.40;65.60;;;;;;3118354;28;19928;-75
2021/07/03 07:28:46;;;;;;;;;;;21.40;65.60;;;;;;3129328;28;19921;-75
2021/07/03 07:30:19;;;;;;;;;;;21.40;65.60;;;;;;3119971;28;19924;-76
2021/07/03 07:31:51;;;;;;;;;;;21.40;65.50;;;;;;3111400;28;19925;-75
2021/07/03 07:33:22;;;;;;;;;;;21.40;65.40;;;;;;3111469;28;19925;-76
2021/07/03 07:34:54;;;;;;;;;;;21.40;65.40;;;;;;3111872;28;20397;-75
2021/07/03 07:36:25;;;;;;;;;;;21.40;65.30;;;;;;3135153;28;19975;-76
2021/07/03 07:37:57;;;;;;;;;;;21.40;65.20;;;;;;3135930;28;20408;-75
2021/07/03 07:39:29;;;;;;;;;;;21.40;65.10;;;;;;3136160;28;19921;-75
2021/07/03 07:41:00;;;;;;;;;;;21.40;65.10;;;;;;3135642;28;19927;-76
2021/07/03 07:42:31;;;;;;;;;;;21.30;65.10;;;;;;3127886;28;19934;-76
2021/07/03 07:44:03;;;;;;;;;;;21.40;65.20;;;;;;3111321;28;19921;-76
2021/07/03 07:45:36;;;;;;;;;;;21.40;65.30;;;;;;3111051;28;19944;-75
2021/07/03 07:47:07;;;;;;;;;;;21.40;65.30;;;;;;3111138;28;20174;-75
2021/07/03 07:48:40;;;;;;;;;;;21.40;65.30;;;;;;3111353;28;20370;-76
2021/07/03 07:50:12;;;;;;;;;;;21.40;65.20;;;;;;3111033;28;19921;-75
2021/07/03 07:51:43;;;;;;;;;;;21.40;65.20;;;;;;3111203;28;19971;-76
2021/07/03 07:53:15;;;;;;;;;;;21.40;65.20;;;;;;3110920;28;19956;-76
2021/07/03 07:54:47;;;;;;;;;;;21.40;65.30;;;;;;3111313;28;19921;-76
2021/07/03 07:56:19;;;;;;;;;;;21.40;65.40;;;;;;3110941;28;19932;-76
2021/07/03 07:57:50;;;;;;;;;;;21.40;65.30;;;;;;3111116;28;19921;-74
2021/07/03 07:59:22;;;;;;;;;;;21.30;65.30;;;;;;3110891;28;19925;-76
2021/07/03 08:00:54;;;;;;;;;;;21.30;65.30;;;;;;3111237;28;19928;-75
2021/07/03 08:02:25;;;;;;;;;;;21.40;65.30;;;;;;3111322;28;19921;-76
2021/07/03 08:03:57;;;;;;;;;;;21.30;65.10;;;;;;3111057;28;19928;-75
2021/07/03 08:05:27;;;;;;;;;;;21.40;65.10;;;;;;3115387;28;20386;-75
2021/07/03 08:06:59;;;;;;;;;;;21.40;65.00;;;;;;3123218;28;19924;-75
2021/07/03 08:08:30;;;;;;;;;;;21.40;65.00;;;;;;3122776;28;19935;-76
2021/07/03 08:10:01;;;;;;;;;;;21.30;65.00;;;;;;3123391;28;19925;-75
2021/07/03 08:11:32;;;;;;;;;;;21.30;64.90;;;;;;3122160;28;20112;-76
2021/07/03 08:13:04;;;;;;;;;;;21.30;64.90;;;;;;3122750;28;19921;-75
2021/07/03 08:14:35;;;;;;;;;;;21.30;64.80;;;;;;3122589;28;19921;-75
2021/07/03 08:16:07;;;;;;;;;;;21.30;64.70;;;;;;3121382;28;19928;-75
2021/07/03 08:17:43;;;;;;;;;;;21.40;64.80;;;;;;3122075;28;19921;-75
2021/07/03 08:19:15;;;;;;;;;;;21.40;64.80;;;;;;3116865;28;19921;-72
2021/07/03 08:20:47;;;;;;;;;;;21.40;64.80;;;;;;3111094;28;20013;-74
2021/07/03 08:22:18;;;;;;;;;;;21.40;64.70;;;;;;3110705;28;19921;-72
2021/07/03 08:23:51;;;;;;;;;;;21.50;64.90;;;;;;3110713;28;19944;-73
2021/07/03 08:25:23;;;;;;;;;;;21.50;64.90;;;;;;3110867;28;19922;-75
2021/07/03 08:26:54;;;;;;;;;;;21.50;64.60;;;;;;3110549;28;19929;-75
2021/07/03 08:28:26;;;;;;;;;;;21.60;64.80;;;;;;3110784;28;20107;-72
2021/07/03 08:29:56;;;;;;;;;;;21.60;64.80;;;;;;3110928;28;20373;-75
2021/07/03 08:31:30;;;;;;;;;;;21.60;64.90;;;;;;3111054;28;19925;-71
2021/07/03 08:33:00;;;;;;;;;;;21.70;65.40;;;;;;3110565;28;19921;-73
2021/07/03 08:34:32;;;;;;;;;;;21.70;65.40;;;;;;3110630;28;19931;-74
2021/07/03 08:36:04;;;;;;;;;;;21.70;65.40;;;;;;3110714;28;19951;-73
2021/07/03 08:37:34;;;;;;;;;;;21.80;65.40;;;;;;3111122;28;19921;-73
2021/07/03 08:39:06;;;;;;;;;;;21.80;65.50;;;;;;3110769;28;19925;-73
2021/07/03 08:40:37;;;;;;;;;;;21.80;65.40;;;;;;3110428;28;19921;-73
2021/07/03 08:42:08;;;;;;;;;;;21.80;65.40;;;;;;3110722;28;19928;-74
2021/07/03 08:43:46;;;;;;;;;;;21.80;65.50;;;;;;3110328;28;19925;-74
2021/07/03 08:45:17;;;;;;;;;;;21.80;65.40;;;;;;3109961;28;20374;-73
2021/07/03 08:46:50;;;;;;;;;;;21.80;65.40;;;;;;3110235;28;19921;-73
2021/07/03 08:48:21;;;;;;;;;;;21.80;65.30;;;;;;3110948;28;19979;-73
2021/07/03 08:49:52;;;;;;;;;;;21.90;65.30;;;;;;3110700;28;19921;-73
2021/07/03 08:51:24;;;;;;;;;;;21.90;65.30;;;;;;3110300;28;19917;-73
2021/07/03 08:52:55;;;;;;;;;;;21.90;65.30;;;;;;3110687;28;19925;-72
2021/07/03 08:54:26;;;;;;;;;;;21.90;65.10;;;;;;3110960;28;19929;-73
2021/07/03 08:55:59;;;;;;;;;;;22.00;65.20;;;;;;3159865;22;19920;-83